createdAt,value
2022-10-16T00:01:23.889Z,14.87
2022-10-16T00:03:51.610Z,14.85
2022-10-16T00:06:21.133Z,14.87
2022-10-16T00:08:48.997Z,14.84
2022-10-16T00:11:20.547Z,14.83
2022-10-16T00:13:49.246Z,14.81
2022-10-16T00:16:17.508Z,14.81
2022-10-16T00:18:44.805Z,14.80
2022-10-16T00:21:16.122Z,14.80
2022-10-16T00:23:43.534Z,14.78
2022-10-16T00:26:14.582Z,14.75
2022-10-16T00:28:41.543Z,14.76
2022-10-16T00:31:11.038Z,14.77
2022-10-16T00:33:39.926Z,14.73
2022-10-16T00:36:09.133Z,14.74
2022-10-16T00:38:36.151Z,14.73
2022-10-16T00:41:03.062Z,14.72
2022-10-16T00:43:41.050Z,14.73
2022-10-16T00:46:37.177Z,14.72
2022-10-16T00:49:11.994Z,14.72
2022-10-16T00:51:49.091Z,14.72
2022-10-16T00:54:21.445Z,14.70
2022-10-16T00:56:49.148Z,14.69
2022-10-16T00:59:31.843Z,14.69
2022-10-16T01:01:59.620Z,14.69
2022-10-16T01:04:27.619Z,14.66
2022-10-16T01:07:13.251Z,14.65
2022-10-16T01:10:01.647Z,14.65
2022-10-16T01:12:57.334Z,14.65
2022-10-16T01:18:46.717Z,14.63
2022-10-16T01:21:33.749Z,14.63
2022-10-16T01:24:00.511Z,14.63
2022-10-16T01:26:36.033Z,14.62
2022-10-16T01:29:14.228Z,14.61
2022-10-16T01:31:43.711Z,14.62
2022-10-16T01:34:33.280Z,14.62
2022-10-16T01:37:26.897Z,14.60
2022-10-16T01:39:57.358Z,14.61
2022-10-16T01:42:30.006Z,14.58
2022-10-16T01:45:00.097Z,14.58
2022-10-16T01:47:28.888Z,14.58
2022-10-16T01:49:59.256Z,14.60
2022-10-16T01:52:30.287Z,14.58
2022-10-16T01:54:59.458Z,14.55
2022-10-16T01:57:29.086Z,14.55
2022-10-16T01:59:59.532Z,14.56
2022-10-16T02:02:29.823Z,14.56
2022-10-16T02:05:02.880Z,14.56
2022-10-16T02:07:29.804Z,14.55
2022-10-16T02:09:56.990Z,14.55
2022-10-16T02:12:30.136Z,14.55
2022-10-16T02:14:57.278Z,14.53
2022-10-16T02:17:24.599Z,14.54
2022-10-16T02:19:54.465Z,14.54
2022-10-16T02:25:03.807Z,14.52
2022-10-16T02:27:52.767Z,14.51
2022-10-16T02:30:40.739Z,14.51
2022-10-16T02:33:11.148Z,14.51
2022-10-16T02:35:39.547Z,14.51
2022-10-16T02:38:07.510Z,14.51
2022-10-16T02:40:34.932Z,14.48
2022-10-16T02:43:04.352Z,14.50
2022-10-16T02:45:31.233Z,14.50
2022-10-16T02:47:58.136Z,14.48
2022-10-16T02:50:26.333Z,14.47
2022-10-16T02:52:53.352Z,14.47
2022-10-16T02:55:20.353Z,14.46
2022-10-16T02:57:47.336Z,14.45
2022-10-16T03:00:16.812Z,14.43
2022-10-16T03:02:44.111Z,14.43
2022-10-16T03:05:11.788Z,14.43
2022-10-16T03:07:38.822Z,14.43
2022-10-16T03:10:06.359Z,14.42
2022-10-16T03:12:33.215Z,14.41
2022-10-16T03:15:00.197Z,14.40
2022-10-16T03:17:27.347Z,14.39
2022-10-16T03:19:54.521Z,14.40
2022-10-16T03:22:21.319Z,14.37
2022-10-16T03:24:48.170Z,14.38
2022-10-16T03:27:15.068Z,14.37
2022-10-16T03:29:41.923Z,14.37
2022-10-16T03:32:08.820Z,14.36
2022-10-16T03:34:35.618Z,14.36
2022-10-16T03:37:02.420Z,14.35
2022-10-16T03:39:29.254Z,14.34
2022-10-16T03:41:56.032Z,14.34
2022-10-16T03:44:22.975Z,14.33
2022-10-16T03:46:49.769Z,14.32
2022-10-16T03:49:16.578Z,14.30
2022-10-16T03:51:43.376Z,14.31
2022-10-16T03:54:11.565Z,14.29
2022-10-16T03:56:38.422Z,14.30
2022-10-16T03:59:05.799Z,14.28
2022-10-16T04:01:32.630Z,14.28
2022-10-16T04:03:59.509Z,14.26
2022-10-16T04:06:26.361Z,14.24
2022-10-16T04:08:53.237Z,14.24
2022-10-16T04:11:20.065Z,14.22
2022-10-16T04:13:46.958Z,14.23
2022-10-16T04:16:13.779Z,14.22
2022-10-16T04:18:40.631Z,14.21
2022-10-16T04:21:08.040Z,14.19
2022-10-16T04:23:34.910Z,14.18
2022-10-16T04:26:02.078Z,14.18
2022-10-16T04:28:29.763Z,14.17
2022-10-16T04:30:56.700Z,14.17
2022-10-16T04:33:23.549Z,14.16
2022-10-16T04:35:57.101Z,14.13
2022-10-16T04:38:24.007Z,14.12
2022-10-16T04:40:50.825Z,14.13
2022-10-16T04:43:17.650Z,14.12
2022-10-16T04:45:44.916Z,14.10
2022-10-16T04:48:12.133Z,14.12
2022-10-16T04:50:38.939Z,14.10
2022-10-16T04:53:06.772Z,14.08
2022-10-16T04:55:33.911Z,14.08
2022-10-16T04:58:00.977Z,14.07
2022-10-16T05:00:27.915Z,14.05
2022-10-16T05:02:54.951Z,14.05
2022-10-16T05:05:22.082Z,14.05
2022-10-16T05:07:50.823Z,14.06
2022-10-16T05:10:18.008Z,14.04
2022-10-16T05:12:45.050Z,14.03
2022-10-16T05:15:12.151Z,14.04
2022-10-16T05:17:42.471Z,14.03
2022-10-16T05:20:12.254Z,14.01
2022-10-16T05:22:39.352Z,14.01
2022-10-16T05:25:06.802Z,13.98
2022-10-16T05:27:33.559Z,13.99
2022-10-16T05:30:00.452Z,13.97
2022-10-16T05:32:27.212Z,13.97
2022-10-16T05:34:54.096Z,13.98
2022-10-16T05:37:20.973Z,14.01
2022-10-16T05:39:47.782Z,14.02
2022-10-16T05:42:14.607Z,14.03
2022-10-16T05:44:41.411Z,14.02
2022-10-16T05:47:08.355Z,14.03
2022-10-16T05:49:37.858Z,14.01
2022-10-16T05:52:07.643Z,14.02
2022-10-16T05:54:34.455Z,14.00
2022-10-16T05:57:01.365Z,14.01
2022-10-16T05:59:28.133Z,14.02
2022-10-16T06:01:54.985Z,14.01
2022-10-16T06:04:21.829Z,14.03
2022-10-16T06:06:48.636Z,14.05
2022-10-16T06:09:15.560Z,14.08
2022-10-16T06:11:42.400Z,14.09
2022-10-16T06:14:10.186Z,14.08
2022-10-16T06:16:38.106Z,14.11
2022-10-16T06:19:07.618Z,14.10
2022-10-16T06:21:34.647Z,14.11
2022-10-16T06:24:01.460Z,14.13
2022-10-16T06:26:31.542Z,14.15
2022-10-16T06:29:00.214Z,14.16
2022-10-16T06:31:30.319Z,14.17
2022-10-16T06:33:57.625Z,14.19
2022-10-16T06:36:26.098Z,14.17
2022-10-16T06:38:53.572Z,14.19
2022-10-16T06:41:23.121Z,14.21
2022-10-16T06:43:50.036Z,14.21
2022-10-16T06:46:19.662Z,14.21
2022-10-16T06:48:46.933Z,14.23
2022-10-16T06:51:17.859Z,14.23
2022-10-16T06:54:02.233Z,14.24
2022-10-16T06:56:33.662Z,14.29
2022-10-16T06:59:01.575Z,14.29
2022-10-16T07:01:29.036Z,14.34
2022-10-16T07:03:56.216Z,14.35
2022-10-16T07:06:25.529Z,14.37
2022-10-16T07:08:53.140Z,14.40
2022-10-16T07:11:22.803Z,14.41
2022-10-16T07:13:54.761Z,14.47
2022-10-16T07:16:27.846Z,14.51
2022-10-16T07:19:00.463Z,14.55
2022-10-16T07:21:30.983Z,14.62
2022-10-16T07:24:00.837Z,14.66
2022-10-16T07:26:29.358Z,14.70
2022-10-16T07:28:56.336Z,14.74
2022-10-16T07:31:24.058Z,14.79
2022-10-16T07:33:51.650Z,14.81
2022-10-16T07:36:21.013Z,14.83
2022-10-16T07:38:48.809Z,14.86
2022-10-16T07:41:18.504Z,14.86
2022-10-16T07:43:50.255Z,14.88
2022-10-16T07:46:18.584Z,14.94
2022-10-16T07:48:48.403Z,14.96
2022-10-16T07:51:18.172Z,14.98
2022-10-16T07:53:45.396Z,15.00
2022-10-16T07:56:13.135Z,15.06
2022-10-16T07:58:40.434Z,15.08
2022-10-16T08:01:09.487Z,15.09
2022-10-16T08:03:36.502Z,15.05
2022-10-16T08:06:05.413Z,15.03
2022-10-16T08:08:32.407Z,15.02
2022-10-16T08:10:59.246Z,15.02
2022-10-16T08:13:27.773Z,15.00
2022-10-16T08:15:55.724Z,14.98
2022-10-16T08:18:23.349Z,14.98
2022-10-16T08:20:57.212Z,15.00
2022-10-16T08:23:24.330Z,14.93
2022-10-16T08:25:51.250Z,14.91
2022-10-16T08:28:18.239Z,14.88
2022-10-16T08:30:45.110Z,14.87
2022-10-16T08:33:12.357Z,14.87
2022-10-16T08:35:39.217Z,14.90
2022-10-16T08:38:06.824Z,14.96
2022-10-16T08:40:35.678Z,14.97
2022-10-16T08:43:05.535Z,14.97
2022-10-16T08:45:38.320Z,14.98
2022-10-16T08:48:32.995Z,14.96
2022-10-16T08:50:59.964Z,14.97
2022-10-16T08:53:42.621Z,14.95
2022-10-16T08:56:09.651Z,14.95
2022-10-16T08:58:36.859Z,14.94
2022-10-16T09:01:12.609Z,14.95
2022-10-16T09:03:54.413Z,14.97
2022-10-16T09:06:52.242Z,14.99
2022-10-16T09:09:31.370Z,14.97
2022-10-16T09:12:38.780Z,14.96
2022-10-16T09:15:26.950Z,14.97
2022-10-16T09:18:32.511Z,14.95
2022-10-16T09:21:14.705Z,14.99
2022-10-16T09:23:42.018Z,14.97
2022-10-16T09:26:14.255Z,14.98
2022-10-16T09:28:41.847Z,14.96
2022-10-16T09:31:26.680Z,15.01
2022-10-16T09:34:01.322Z,15.03
2022-10-16T09:36:30.436Z,15.08
2022-10-16T09:39:06.071Z,15.12
2022-10-16T09:41:37.035Z,15.17
2022-10-16T09:44:07.984Z,15.17
2022-10-16T09:46:39.442Z,15.25
2022-10-16T09:49:26.288Z,15.29
2022-10-16T09:52:07.911Z,15.30
2022-10-16T09:54:34.941Z,15.38
2022-10-16T09:57:09.042Z,15.42
2022-10-16T09:59:35.941Z,15.49
2022-10-16T10:02:12.499Z,15.55
2022-10-16T10:05:01.917Z,15.61
2022-10-16T10:07:44.395Z,15.63
2022-10-16T10:10:26.351Z,15.69
2022-10-16T10:12:54.451Z,15.73
2022-10-16T10:15:23.222Z,15.76
2022-10-16T10:17:56.184Z,15.78
2022-10-16T10:20:41.413Z,15.84
2022-10-16T10:23:27.644Z,15.87
2022-10-16T10:26:12.130Z,15.89
2022-10-16T10:28:50.832Z,15.91
2022-10-16T10:31:42.173Z,15.95
2022-10-16T10:34:20.924Z,16.02
2022-10-16T10:36:58.777Z,16.03
2022-10-16T10:39:33.986Z,16.04
2022-10-16T10:42:35.038Z,16.09
2022-10-16T10:45:26.110Z,16.12
2022-10-16T10:48:14.633Z,16.14
2022-10-16T10:50:46.932Z,16.17
2022-10-16T10:53:28.647Z,16.19
2022-10-16T10:56:24.544Z,16.19
2022-10-16T10:59:23.760Z,16.22
2022-10-16T11:02:16.820Z,16.23
2022-10-16T11:05:00.711Z,16.23
2022-10-16T11:07:32.414Z,16.28
2022-10-16T11:10:05.317Z,16.28
2022-10-16T11:12:42.606Z,16.31
2022-10-16T11:15:20.146Z,16.30
2022-10-16T11:17:55.705Z,16.26
2022-10-16T11:20:27.656Z,16.25
2022-10-16T11:23:17.553Z,16.25
2022-10-16T11:25:46.703Z,16.22
2022-10-16T11:28:31.845Z,16.21
2022-10-16T11:31:04.151Z,16.18
2022-10-16T11:33:44.326Z,16.16
2022-10-16T11:36:26.249Z,16.16
2022-10-16T11:38:59.117Z,16.16
2022-10-16T11:41:33.190Z,16.16
2022-10-16T11:44:08.166Z,16.17
2022-10-16T11:46:52.615Z,16.17
2022-10-16T11:49:28.629Z,16.18
2022-10-16T11:52:37.114Z,16.15
2022-10-16T11:55:04.015Z,16.13
2022-10-16T11:57:40.826Z,16.14
2022-10-16T12:00:30.846Z,16.13
2022-10-16T12:03:21.519Z,16.16
2022-10-16T12:06:21.524Z,16.15
2022-10-16T12:08:49.416Z,16.16
2022-10-16T12:11:28.232Z,16.17
2022-10-16T12:14:07.726Z,16.18
2022-10-16T12:16:35.074Z,16.17
2022-10-16T12:19:16.576Z,16.17
2022-10-16T12:21:45.878Z,16.19
2022-10-16T12:24:38.726Z,16.19
2022-10-16T12:27:08.487Z,16.19
2022-10-16T12:29:44.215Z,16.18
2022-10-16T12:32:48.143Z,16.20
2022-10-16T12:35:28.730Z,16.18
2022-10-16T12:38:06.890Z,16.17
2022-10-16T12:40:36.392Z,16.18
2022-10-16T12:43:24.942Z,16.19
2022-10-16T12:46:21.431Z,16.16
2022-10-16T12:49:05.588Z,16.20
2022-10-16T12:51:33.658Z,16.21
2022-10-16T12:54:05.072Z,16.25
2022-10-16T12:56:47.024Z,16.27
2022-10-16T12:59:59.307Z,16.29
2022-10-16T13:02:58.934Z,16.28
2022-10-16T13:05:39.617Z,16.31
2022-10-16T13:08:30.645Z,16.32
2022-10-16T13:11:17.810Z,16.34
2022-10-16T13:14:21.970Z,16.35
2022-10-16T13:16:59.384Z,16.34
2022-10-16T13:20:27.582Z,16.36
2022-10-16T13:23:18.906Z,16.37
2022-10-16T13:25:48.564Z,16.34
2022-10-16T13:28:16.543Z,16.34
2022-10-16T13:30:54.325Z,16.33
2022-10-16T13:33:33.341Z,16.35
2022-10-16T13:36:01.104Z,16.37
2022-10-16T13:38:31.570Z,16.39
2022-10-16T13:41:17.286Z,16.38
2022-10-16T13:43:52.014Z,16.39
2022-10-16T13:46:21.549Z,16.41
2022-10-16T13:48:59.873Z,16.44
2022-10-16T13:51:27.755Z,16.44
2022-10-16T13:53:57.342Z,16.43
2022-10-16T13:56:28.559Z,16.43
2022-10-16T13:59:02.012Z,16.48
2022-10-16T14:01:35.573Z,16.46
2022-10-16T14:04:06.097Z,16.49
2022-10-16T14:06:34.502Z,16.48
2022-10-16T14:09:01.319Z,16.47
2022-10-16T14:11:28.384Z,16.48
2022-10-16T14:13:56.331Z,16.45
2022-10-16T14:16:26.659Z,16.49
2022-10-16T14:19:06.681Z,16.46
2022-10-16T14:21:34.985Z,16.47
2022-10-16T14:24:12.567Z,16.48
2022-10-16T14:26:50.445Z,16.48
2022-10-16T14:29:21.176Z,16.50
2022-10-16T14:31:59.941Z,16.51
2022-10-16T14:34:28.774Z,16.50
2022-10-16T14:36:56.789Z,16.50
2022-10-16T14:39:26.877Z,16.49
2022-10-16T14:41:57.132Z,16.50
2022-10-16T14:44:32.605Z,16.49
2022-10-16T14:47:07.703Z,16.47
2022-10-16T14:49:34.707Z,16.45
2022-10-16T14:52:02.765Z,16.45
2022-10-16T14:54:29.753Z,16.45
2022-10-16T14:57:00.548Z,16.47
2022-10-16T14:59:40.505Z,16.45
2022-10-16T15:02:32.350Z,16.47
2022-10-16T15:05:14.276Z,16.44
2022-10-16T15:07:41.628Z,16.44
2022-10-16T15:10:09.075Z,16.46
2022-10-16T15:12:36.266Z,16.48
2022-10-16T15:15:03.401Z,16.55
2022-10-16T15:17:30.567Z,16.56
2022-10-16T15:20:00.000Z,16.58
2022-10-16T15:22:26.991Z,16.61
2022-10-16T15:24:53.926Z,16.63
2022-10-16T15:27:20.857Z,16.65
2022-10-16T15:29:47.822Z,16.69
2022-10-16T15:32:14.912Z,16.69
2022-10-16T15:34:41.840Z,16.71
2022-10-16T15:37:10.205Z,16.71
2022-10-16T15:39:40.561Z,16.76
2022-10-16T15:42:08.818Z,16.80
2022-10-16T15:44:36.001Z,16.81
2022-10-16T15:47:03.031Z,16.83
2022-10-16T15:49:30.208Z,16.86
2022-10-16T15:51:57.683Z,16.87
2022-10-16T15:54:24.928Z,16.87
2022-10-16T15:56:51.823Z,16.88
2022-10-16T15:59:20.156Z,16.87
2022-10-16T16:01:47.359Z,16.82
2022-10-16T16:04:32.010Z,16.80
2022-10-16T16:07:02.649Z,16.79
2022-10-16T16:09:32.346Z,16.82
2022-10-16T16:12:01.774Z,16.83
2022-10-16T16:14:29.368Z,16.83
2022-10-16T16:16:58.129Z,16.82
2022-10-16T16:19:25.133Z,16.87
2022-10-16T16:21:52.357Z,16.93
2022-10-16T16:24:19.587Z,16.94
2022-10-16T16:26:46.503Z,16.92
2022-10-16T16:29:15.648Z,16.96
2022-10-16T16:31:43.758Z,16.99
2022-10-16T16:34:10.990Z,17.00
2022-10-16T16:36:38.215Z,17.00
2022-10-16T16:39:05.504Z,17.00
2022-10-16T16:41:32.676Z,17.03
2022-10-16T16:44:05.359Z,17.03
2022-10-16T16:46:33.874Z,17.04
2022-10-16T16:49:01.769Z,17.05
2022-10-16T16:51:29.232Z,17.04
2022-10-16T16:53:56.419Z,17.06
2022-10-16T16:56:24.646Z,17.04
2022-10-16T16:58:54.080Z,17.02
2022-10-16T17:01:22.358Z,17.02
2022-10-16T17:03:53.166Z,17.04
2022-10-16T17:06:28.697Z,17.04
2022-10-16T17:08:55.653Z,17.02
2022-10-16T17:11:25.007Z,17.01
2022-10-16T17:13:56.828Z,17.02
2022-10-16T17:16:45.702Z,17.04
2022-10-16T17:19:16.294Z,17.04
2022-10-16T17:21:43.989Z,16.99
2022-10-16T17:24:11.547Z,16.98
2022-10-16T17:26:39.861Z,16.97
2022-10-16T17:29:07.895Z,16.98
2022-10-16T17:31:37.743Z,16.99
2022-10-16T17:34:07.542Z,16.98
2022-10-16T17:36:37.570Z,16.96
2022-10-16T17:39:07.468Z,16.93
2022-10-16T17:41:36.178Z,16.99
2022-10-16T17:44:04.359Z,17.01
2022-10-16T17:46:35.583Z,17.02
2022-10-16T17:49:05.834Z,17.02
2022-10-16T17:51:35.521Z,17.09
2022-10-16T17:54:03.541Z,17.04
2022-10-16T17:56:31.931Z,17.06
2022-10-16T17:59:02.159Z,17.06
2022-10-16T18:01:38.540Z,17.05
2022-10-16T18:04:10.332Z,17.04
2022-10-16T18:06:38.701Z,17.06
2022-10-16T18:09:07.786Z,17.05
2022-10-16T18:11:35.718Z,17.06
2022-10-16T18:14:03.749Z,17.04
2022-10-16T18:16:31.936Z,17.04
2022-10-16T18:19:02.565Z,17.03
2022-10-16T18:21:30.094Z,17.03
2022-10-16T18:23:59.757Z,17.02
2022-10-16T18:26:27.843Z,17.02
2022-10-16T18:28:57.024Z,16.95
2022-10-16T18:31:26.841Z,17.00
2022-10-16T18:33:54.433Z,17.00
2022-10-16T18:36:29.899Z,17.01
2022-10-16T18:38:57.698Z,16.99
2022-10-16T18:41:25.509Z,17.02
2022-10-16T18:43:53.375Z,17.01
2022-10-16T18:46:22.684Z,17.00
2022-10-16T18:48:51.552Z,17.04
2022-10-16T18:51:18.870Z,17.06
2022-10-16T18:53:48.676Z,17.10
2022-10-16T18:56:17.062Z,17.10
2022-10-16T18:58:45.961Z,17.09
2022-10-16T19:01:16.280Z,17.10
2022-10-16T19:03:44.026Z,17.11
2022-10-16T19:06:14.802Z,17.10
2022-10-16T19:08:42.062Z,17.11
2022-10-16T19:11:19.220Z,17.14
2022-10-16T19:13:48.390Z,17.15
2022-10-16T19:16:20.785Z,17.17
2022-10-16T19:18:50.518Z,17.17
2022-10-16T19:21:20.789Z,17.18
2022-10-16T19:23:52.364Z,17.18
2022-10-16T19:26:20.480Z,17.20
2022-10-16T19:28:48.153Z,17.21
2022-10-16T19:31:17.872Z,17.20
2022-10-16T19:33:46.630Z,17.20
2022-10-16T19:36:17.786Z,17.23
2022-10-16T19:38:46.308Z,17.24
2022-10-16T19:41:17.396Z,17.26
2022-10-16T19:43:45.174Z,17.26
2022-10-16T19:46:14.967Z,17.27
2022-10-16T19:48:42.363Z,17.28
2022-10-16T19:51:15.321Z,17.31
2022-10-16T19:53:42.439Z,17.33
2022-10-16T19:56:18.829Z,17.35
2022-10-16T19:58:46.881Z,17.38
2022-10-16T20:01:15.511Z,17.40
2022-10-16T20:03:46.984Z,17.35
2022-10-16T20:06:14.955Z,17.33
2022-10-16T20:08:46.429Z,17.28
2022-10-16T20:11:19.446Z,17.24
2022-10-16T20:13:47.133Z,17.10
2022-10-16T20:16:22.065Z,17.03
2022-10-16T20:18:52.462Z,16.97
2022-10-16T20:21:25.426Z,16.89
2022-10-16T20:23:53.010Z,16.83
2022-10-16T20:26:22.630Z,16.77
2022-10-16T20:28:54.182Z,16.73
2022-10-16T20:31:27.585Z,16.69
2022-10-16T20:33:57.779Z,16.66
2022-10-16T20:36:28.816Z,16.62
2022-10-16T20:38:59.190Z,16.58
2022-10-16T20:41:26.785Z,16.55
2022-10-16T20:43:56.154Z,16.53
2022-10-16T20:46:26.234Z,16.47
2022-10-16T20:48:54.683Z,16.45
2022-10-16T20:51:30.557Z,16.40
2022-10-16T20:54:03.002Z,16.38
2022-10-16T20:56:33.819Z,16.32
2022-10-16T20:59:01.226Z,16.29
2022-10-16T21:01:32.618Z,16.27
2022-10-16T21:04:07.051Z,16.23
2022-10-16T21:06:37.414Z,16.22
2022-10-16T21:09:07.400Z,16.18
2022-10-16T21:11:36.335Z,16.17
2022-10-16T21:14:08.401Z,16.12
2022-10-16T21:16:36.482Z,16.12
2022-10-16T21:19:04.102Z,16.08
2022-10-16T21:21:37.695Z,16.06
2022-10-16T21:24:06.431Z,16.01
2022-10-16T21:26:34.772Z,16.00
2022-10-16T21:29:05.318Z,16.00
2022-10-16T21:31:34.078Z,15.96
2022-10-16T21:34:01.847Z,15.96
2022-10-16T21:36:31.724Z,15.90
2022-10-16T21:39:03.944Z,15.89
2022-10-16T21:41:31.304Z,15.86
2022-10-16T21:43:59.441Z,15.86
2022-10-16T21:46:29.632Z,15.84
2022-10-16T21:48:58.867Z,15.80
2022-10-16T21:51:34.535Z,15.79
2022-10-16T21:54:02.934Z,15.76
2022-10-16T21:56:30.373Z,15.76
2022-10-16T21:58:57.735Z,15.74
2022-10-16T22:01:26.738Z,15.71
2022-10-16T22:03:55.007Z,15.70
2022-10-16T22:06:23.803Z,15.69
2022-10-16T22:08:53.155Z,15.65
2022-10-16T22:11:26.161Z,15.64
2022-10-16T22:13:54.122Z,15.61
2022-10-16T22:16:26.236Z,15.60
2022-10-16T22:18:58.402Z,15.58
2022-10-16T22:21:27.071Z,15.52
2022-10-16T22:23:54.055Z,15.53
2022-10-16T22:26:21.856Z,15.51
2022-10-16T22:28:48.864Z,15.51
2022-10-16T22:31:16.274Z,15.50
2022-10-16T22:33:44.049Z,15.46
2022-10-16T22:36:14.924Z,15.45
2022-10-16T22:38:41.973Z,15.45
2022-10-16T22:41:11.624Z,15.43
2022-10-16T22:43:40.622Z,15.40
2022-10-16T22:46:09.549Z,15.39
2022-10-16T22:48:37.280Z,15.36
2022-10-16T22:51:05.942Z,15.37
2022-10-16T22:53:33.722Z,15.37
2022-10-16T22:56:00.712Z,15.32
2022-10-16T22:58:28.669Z,15.30
2022-10-16T23:00:55.682Z,15.30
2022-10-16T23:03:22.794Z,15.26
2022-10-16T23:05:49.699Z,15.25
2022-10-16T23:08:16.919Z,15.25
2022-10-16T23:10:46.725Z,15.24
2022-10-16T23:13:13.970Z,15.23
2022-10-16T23:15:44.824Z,15.20
2022-10-16T23:18:12.424Z,15.19
2022-10-16T23:20:40.670Z,15.18
2022-10-16T23:23:08.220Z,15.15
2022-10-16T23:25:35.237Z,15.16
2022-10-16T23:28:02.579Z,15.13
2022-10-16T23:30:29.486Z,15.15
2022-10-16T23:32:56.361Z,15.12
2022-10-16T23:35:23.274Z,15.13
2022-10-16T23:37:51.716Z,15.10
2022-10-16T23:40:18.899Z,15.08
2022-10-16T23:42:45.837Z,15.07
2022-10-16T23:45:12.684Z,15.07
2022-10-16T23:47:41.675Z,15.04
2022-10-16T23:50:10.046Z,15.05
2022-10-16T23:52:37.242Z,15.03
2022-10-16T23:55:05.052Z,15.03
2022-10-16T23:57:31.956Z,15.01
2022-10-16T23:59:58.816Z,15.02
